sensor_id;sensor_type;location;lat;lon;timestamp;temperature;humidity
10864;DHT22;5485;37.558;126.950;2022-08-14T00:00:50;27.60;99.90
10864;DHT22;5485;37.558;126.950;2022-08-14T00:03:25;27.60;99.90
10864;DHT22;5485;37.558;126.950;2022-08-14T00:05:53;27.70;99.90
10864;DHT22;5485;37.558;126.950;2022-08-14T00:08:21;27.70;99.90
10864;DHT22;5485;37.558;126.950;2022-08-14T00:10:48;27.70;99.90
10864;DHT22;5485;37.558;126.950;2022-08-14T00:13:18;27.70;99.90
10864;DHT22;5485;37.558;126.950;2022-08-14T00:15:47;27.80;99.90
10864;DHT22;5485;37.558;126.950;2022-08-14T00:18:20;27.80;99.90
10864;DHT22;5485;37.558;126.950;2022-08-14T00:20:48;27.90;99.90
10864;DHT22;5485;37.558;126.950;2022-08-14T00:23:16;27.90;99.90
10864;DHT22;5485;37.558;126.950;2022-08-14T00:25:46;28.00;99.90
10864;DHT22;5485;37.558;126.950;2022-08-14T00:28:14;28.10;99.90
10864;DHT22;5485;37.558;126.950;2022-08-14T00:30:41;28.20;99.90
10864;DHT22;5485;37.558;126.950;2022-08-14T00:33:08;28.20;99.90
10864;DHT22;5485;37.558;126.950;2022-08-14T00:35:36;28.30;99.90
10864;DHT22;5485;37.558;126.950;2022-08-14T00:38:03;28.40;99.90
10864;DHT22;5485;37.558;126.950;2022-08-14T00:40:31;28.40;99.90
10864;DHT22;5485;37.558;126.950;2022-08-14T00:42:58;28.50;99.90
10864;DHT22;5485;37.558;126.950;2022-08-14T00:45:25;28.60;99.90
10864;DHT22;5485;37.558;126.950;2022-08-14T00:47:56;28.80;99.90
10864;DHT22;5485;37.558;126.950;2022-08-14T00:50:29;29.10;99.90
10864;DHT22;5485;37.558;126.950;2022-08-14T00:52:58;29.20;99.90
10864;DHT22;5485;37.558;126.950;2022-08-14T00:55:28;29.40;99.90
10864;DHT22;5485;37.558;126.950;2022-08-14T00:57:59;29.60;99.90
10864;DHT22;5485;37.558;126.950;2022-08-14T01:00:46;29.70;99.90
10864;DHT22;5485;37.558;126.950;2022-08-14T01:03:16;29.90;99.90
10864;DHT22;5485;37.558;126.950;2022-08-14T01:05:45;30.00;99.90
10864;DHT22;5485;37.558;126.950;2022-08-14T01:08:26;30.10;99.90
10864;DHT22;5485;37.558;126.950;2022-08-14T01:10:54;30.20;99.90
10864;DHT22;5485;37.558;126.950;2022-08-14T01:13:37;30.50;99.90
10864;DHT22;5485;37.558;126.950;2022-08-14T01:16:09;30.40;99.90
10864;DHT22;5485;37.558;126.950;2022-08-14T01:18:38;30.30;99.90
10864;DHT22;5485;37.558;126.950;2022-08-14T01:21:29;30.60;99.90
10864;DHT22;5485;37.558;126.950;2022-08-14T01:23:57;30.70;99.90
10864;DHT22;5485;37.558;126.950;2022-08-14T01:26:26;31.00;99.90
10864;DHT22;5485;37.558;126.950;2022-08-14T01:28:55;31.20;99.90
10864;DHT22;5485;37.558;126.950;2022-08-14T01:31:26;31.50;99.90
10864;DHT22;5485;37.558;126.950;2022-08-14T01:33:56;32.50;99.90
10864;DHT22;5485;37.558;126.950;2022-08-14T01:36:25;33.40;95.20
10864;DHT22;5485;37.558;126.950;2022-08-14T01:38:54;34.00;77.70
10864;DHT22;5485;37.558;126.950;2022-08-14T01:41:26;33.90;77.50
10864;DHT22;5485;37.558;126.950;2022-08-14T01:43:58;33.90;77.50
10864;DHT22;5485;37.558;126.950;2022-08-14T01:46:32;33.90;77.40
10864;DHT22;5485;37.558;126.950;2022-08-14T01:49:01;33.80;77.90
10864;DHT22;5485;37.558;126.950;2022-08-14T01:51:30;34.00;68.00
10864;DHT22;5485;37.558;126.950;2022-08-14T01:54:02;34.60;50.10
10864;DHT22;5485;37.558;126.950;2022-08-14T01:56:33;34.80;35.00
10864;DHT22;5485;37.558;126.950;2022-08-14T01:59:19;34.80;26.80
10864;DHT22;5485;37.558;126.950;2022-08-14T02:01:51;34.30;31.20
10864;DHT22;5485;37.558;126.950;2022-08-14T02:04:20;33.90;35.70
10864;DHT22;5485;37.558;126.950;2022-08-14T02:06:49;33.70;36.80
10864;DHT22;5485;37.558;126.950;2022-08-14T02:09:17;33.30;42.60
10864;DHT22;5485;37.558;126.950;2022-08-14T02:11:45;33.00;46.50
10864;DHT22;5485;37.558;126.950;2022-08-14T02:14:12;32.70;51.30
10864;DHT22;5485;37.558;126.950;2022-08-14T02:16:48;32.40;76.40
10864;DHT22;5485;37.558;126.950;2022-08-14T02:19:27;32.00;76.40
10864;DHT22;5485;37.558;126.950;2022-08-14T02:22:00;32.30;76.60
10864;DHT22;5485;37.558;126.950;2022-08-14T02:24:30;32.70;76.60
10864;DHT22;5485;37.558;126.950;2022-08-14T02:26:58;32.90;77.20
10864;DHT22;5485;37.558;126.950;2022-08-14T02:29:29;33.10;76.90
10864;DHT22;5485;37.558;126.950;2022-08-14T02:31:57;33.80;54.60
10864;DHT22;5485;37.558;126.950;2022-08-14T02:37:00;34.80;30.60
10864;DHT22;5485;37.558;126.950;2022-08-14T02:39:31;35.50;19.40
10864;DHT22;5485;37.558;126.950;2022-08-14T02:42:01;35.00;17.40
10864;DHT22;5485;37.558;126.950;2022-08-14T02:44:28;34.60;17.80
10864;DHT22;5485;37.558;126.950;2022-08-14T02:46:55;34.50;18.50
10864;DHT22;5485;37.558;126.950;2022-08-14T02:49:23;34.40;19.30
10864;DHT22;5485;37.558;126.950;2022-08-14T02:51:57;34.50;16.60
10864;DHT22;5485;37.558;126.950;2022-08-14T02:54:25;34.10;19.30
10864;DHT22;5485;37.558;126.950;2022-08-14T02:56:57;33.80;23.60
10864;DHT22;5485;37.558;126.950;2022-08-14T02:59:27;33.50;26.80
10864;DHT22;5485;37.558;126.950;2022-08-14T03:01:55;33.40;30.00
10864;DHT22;5485;37.558;126.950;2022-08-14T03:04:23;33.50;35.60
10864;DHT22;5485;37.558;126.950;2022-08-14T03:06:54;33.60;25.90
10864;DHT22;5485;37.558;126.950;2022-08-14T03:09:21;33.80;21.20
10864;DHT22;5485;37.558;126.950;2022-08-14T03:11:48;34.00;21.30
10864;DHT22;5485;37.558;126.950;2022-08-14T03:14:15;33.90;21.80
10864;DHT22;5485;37.558;126.950;2022-08-14T03:16:43;33.60;24.40
10864;DHT22;5485;37.558;126.950;2022-08-14T03:19:10;33.20;23.70
10864;DHT22;5485;37.558;126.950;2022-08-14T03:21:39;32.90;24.60
10864;DHT22;5485;37.558;126.950;2022-08-14T03:24:06;32.80;31.10
10864;DHT22;5485;37.558;126.950;2022-08-14T03:26:42;32.50;37.20
10864;DHT22;5485;37.558;126.950;2022-08-14T03:29:11;32.60;46.90
10864;DHT22;5485;37.558;126.950;2022-08-14T03:31:39;32.80;53.70
10864;DHT22;5485;37.558;126.950;2022-08-14T03:34:07;32.70;51.20
10864;DHT22;5485;37.558;126.950;2022-08-14T03:36:36;32.60;50.70
10864;DHT22;5485;37.558;126.950;2022-08-14T03:39:08;32.60;52.90
10864;DHT22;5485;37.558;126.950;2022-08-14T03:41:36;32.70;46.80
10864;DHT22;5485;37.558;126.950;2022-08-14T03:44:04;32.60;59.20
10864;DHT22;5485;37.558;126.950;2022-08-14T03:46:33;32.50;65.10
10864;DHT22;5485;37.558;126.950;2022-08-14T03:49:02;32.40;60.00
10864;DHT22;5485;37.558;126.950;2022-08-14T03:51:31;32.10;64.80
10864;DHT22;5485;37.558;126.950;2022-08-14T03:54:00;32.10;76.20
10864;DHT22;5485;37.558;126.950;2022-08-14T03:56:27;32.30;76.30
10864;DHT22;5485;37.558;126.950;2022-08-14T03:58:58;32.40;76.40
10864;DHT22;5485;37.558;126.950;2022-08-14T04:01:26;32.70;76.60
10864;DHT22;5485;37.558;126.950;2022-08-14T04:03:54;32.60;76.50
10864;DHT22;5485;37.558;126.950;2022-08-14T04:06:32;32.80;76.70
10864;DHT22;5485;37.558;126.950;2022-08-14T04:08:59;32.70;76.90
10864;DHT22;5485;37.558;126.950;2022-08-14T04:11:26;32.70;77.00
10864;DHT22;5485;37.558;126.950;2022-08-14T04:13:55;32.90;61.40
10864;DHT22;5485;37.558;126.950;2022-08-14T04:16:22;32.90;57.90
10864;DHT22;5485;37.558;126.950;2022-08-14T04:18:52;33.10;47.80
10864;DHT22;5485;37.558;126.950;2022-08-14T04:21:21;33.00;47.20
10864;DHT22;5485;37.558;126.950;2022-08-14T04:23:51;33.20;40.20
10864;DHT22;5485;37.558;126.950;2022-08-14T04:26:19;33.10;40.00
10864;DHT22;5485;37.558;126.950;2022-08-14T04:28:48;33.10;40.30
10864;DHT22;5485;37.558;126.950;2022-08-14T04:31:17;33.00;41.50
10864;DHT22;5485;37.558;126.950;2022-08-14T04:33:44;33.00;51.90
10864;DHT22;5485;37.558;126.950;2022-08-14T04:36:13;32.60;45.60
10864;DHT22;5485;37.558;126.950;2022-08-14T04:38:40;32.40;49.50
10864;DHT22;5485;37.558;126.950;2022-08-14T04:41:25;32.50;51.90
10864;DHT22;5485;37.558;126.950;2022-08-14T04:44:19;32.50;50.20
10864;DHT22;5485;37.558;126.950;2022-08-14T04:46:46;32.80;44.90
10864;DHT22;5485;37.558;126.950;2022-08-14T04:49:31;32.60;46.00
10864;DHT22;5485;37.558;126.950;2022-08-14T04:52:00;32.40;51.00
10864;DHT22;5485;37.558;126.950;2022-08-14T04:54:29;32.70;44.40
10864;DHT22;5485;37.558;126.950;2022-08-14T04:56:57;32.90;46.70
10864;DHT22;5485;37.558;126.950;2022-08-14T04:59:24;32.70;48.00
10864;DHT22;5485;37.558;126.950;2022-08-14T05:01:52;33.10;40.30
10864;DHT22;5485;37.558;126.950;2022-08-14T05:04:20;33.30;41.90
10864;DHT22;5485;37.558;126.950;2022-08-14T05:06:49;33.40;25.70
10864;DHT22;5485;37.558;126.950;2022-08-14T05:09:16;33.10;26.10
10864;DHT22;5485;37.558;126.950;2022-08-14T05:11:43;33.10;28.40
10864;DHT22;5485;37.558;126.950;2022-08-14T05:14:12;33.30;25.80
10864;DHT22;5485;37.558;126.950;2022-08-14T05:16:39;33.40;18.70
10864;DHT22;5485;37.558;126.950;2022-08-14T05:19:06;33.20;19.20
10864;DHT22;5485;37.558;126.950;2022-08-14T05:21:35;33.30;19.40
10864;DHT22;5485;37.558;126.950;2022-08-14T05:24:02;33.40;21.40
10864;DHT22;5485;37.558;126.950;2022-08-14T05:26:29;33.10;18.60
10864;DHT22;5485;37.558;126.950;2022-08-14T05:28:56;32.60;19.20
10864;DHT22;5485;37.558;126.950;2022-08-14T05:31:23;32.80;21.60
10864;DHT22;5485;37.558;126.950;2022-08-14T05:33:50;33.00;21.70
10864;DHT22;5485;37.558;126.950;2022-08-14T05:36:18;33.00;25.50
10864;DHT22;5485;37.558;126.950;2022-08-14T05:38:46;33.00;25.50
10864;DHT22;5485;37.558;126.950;2022-08-14T05:41:17;33.10;23.40
10864;DHT22;5485;37.558;126.950;2022-08-14T05:43:45;33.10;28.30
10864;DHT22;5485;37.558;126.950;2022-08-14T05:46:17;33.00;29.50
10864;DHT22;5485;37.558;126.950;2022-08-14T05:48:52;33.00;30.20
10864;DHT22;5485;37.558;126.950;2022-08-14T05:51:21;33.00;31.30
10864;DHT22;5485;37.558;126.950;2022-08-14T05:53:48;32.80;24.00
10864;DHT22;5485;37.558;126.950;2022-08-14T05:56:16;32.70;23.00
10864;DHT22;5485;37.558;126.950;2022-08-14T05:58:43;32.50;26.10
10864;DHT22;5485;37.558;126.950;2022-08-14T06:01:10;32.20;31.70
10864;DHT22;5485;37.558;126.950;2022-08-14T06:03:37;32.00;35.60
10864;DHT22;5485;37.558;126.950;2022-08-14T06:06:04;31.90;37.40
10864;DHT22;5485;37.558;126.950;2022-08-14T06:08:32;31.90;43.40
10864;DHT22;5485;37.558;126.950;2022-08-14T06:11:04;31.90;49.90
10864;DHT22;5485;37.558;126.950;2022-08-14T06:13:33;31.90;54.80
10864;DHT22;5485;37.558;126.950;2022-08-14T06:16:00;31.90;56.90
10864;DHT22;5485;37.558;126.950;2022-08-14T06:18:27;31.80;49.80
10864;DHT22;5485;37.558;126.950;2022-08-14T06:20:54;31.60;56.10
10864;DHT22;5485;37.558;126.950;2022-08-14T06:23:21;31.50;57.00
10864;DHT22;5485;37.558;126.950;2022-08-14T06:25:48;31.50;63.10
10864;DHT22;5485;37.558;126.950;2022-08-14T06:28:19;31.40;61.40
10864;DHT22;5485;37.558;126.950;2022-08-14T06:30:47;31.40;66.30
10864;DHT22;5485;37.558;126.950;2022-08-14T06:33:15;31.30;75.60
10864;DHT22;5485;37.558;126.950;2022-08-14T06:35:43;31.20;75.50
10864;DHT22;5485;37.558;126.950;2022-08-14T06:38:15;31.20;75.50
10864;DHT22;5485;37.558;126.950;2022-08-14T06:40:42;31.10;75.40
10864;DHT22;5485;37.558;126.950;2022-08-14T06:43:10;31.20;75.50
10864;DHT22;5485;37.558;126.950;2022-08-14T06:45:39;31.20;75.50
10864;DHT22;5485;37.558;126.950;2022-08-14T06:48:21;31.40;76.10
10864;DHT22;5485;37.558;126.950;2022-08-14T06:50:50;31.60;75.80
10864;DHT22;5485;37.558;126.950;2022-08-14T06:53:17;31.30;75.60
10864;DHT22;5485;37.558;126.950;2022-08-14T06:55:46;31.30;75.60
10864;DHT22;5485;37.558;126.950;2022-08-14T06:58:15;31.40;75.70
10864;DHT22;5485;37.558;126.950;2022-08-14T07:00:43;31.40;75.90
10864;DHT22;5485;37.558;126.950;2022-08-14T07:03:31;31.60;76.20
10864;DHT22;5485;37.558;126.950;2022-08-14T07:06:16;31.60;75.80
10864;DHT22;5485;37.558;126.950;2022-08-14T07:08:44;31.80;62.70
10864;DHT22;5485;37.558;126.950;2022-08-14T07:11:12;32.00;57.50
10864;DHT22;5485;37.558;126.950;2022-08-14T07:13:39;32.00;54.10
10864;DHT22;5485;37.558;126.950;2022-08-14T07:16:06;31.90;58.60
10864;DHT22;5485;37.558;126.950;2022-08-14T07:18:34;31.70;59.40
10864;DHT22;5485;37.558;126.950;2022-08-14T07:21:03;31.70;80.20
10864;DHT22;5485;37.558;126.950;2022-08-14T07:23:31;31.20;75.50
10864;DHT22;5485;37.558;126.950;2022-08-14T07:25:59;31.20;75.50
10864;DHT22;5485;37.558;126.950;2022-08-14T07:28:34;31.10;75.40
10864;DHT22;5485;37.558;126.950;2022-08-14T07:31:03;31.00;75.40
10864;DHT22;5485;37.558;126.950;2022-08-14T07:33:37;31.10;75.90
10864;DHT22;5485;37.558;126.950;2022-08-14T07:36:07;31.20;75.50
10864;DHT22;5485;37.558;126.950;2022-08-14T07:38:35;31.30;75.70
10864;DHT22;5485;37.558;126.950;2022-08-14T07:41:03;31.30;75.50
10864;DHT22;5485;37.558;126.950;2022-08-14T07:43:30;31.20;75.50
10864;DHT22;5485;37.558;126.950;2022-08-14T07:45:57;31.20;75.50
10864;DHT22;5485;37.558;126.950;2022-08-14T07:48:24;31.10;75.40
10864;DHT22;5485;37.558;126.950;2022-08-14T07:50:51;31.00;75.60
10864;DHT22;5485;37.558;126.950;2022-08-14T07:53:19;31.00;75.80
10864;DHT22;5485;37.558;126.950;2022-08-14T07:55:47;30.80;78.50
10864;DHT22;5485;37.558;126.950;2022-08-14T07:58:15;30.80;88.20
10864;DHT22;5485;37.558;126.950;2022-08-14T08:00:45;30.70;92.60
10864;DHT22;5485;37.558;126.950;2022-08-14T08:03:13;30.60;98.60
10864;DHT22;5485;37.558;126.950;2022-08-14T08:05:41;30.50;99.90
10864;DHT22;5485;37.558;126.950;2022-08-14T08:08:10;30.40;99.90
10864;DHT22;5485;37.558;126.950;2022-08-14T08:10:37;30.20;99.90
10864;DHT22;5485;37.558;126.950;2022-08-14T08:15:37;30.20;99.90
10864;DHT22;5485;37.558;126.950;2022-08-14T08:18:06;30.30;99.90
10864;DHT22;5485;37.558;126.950;2022-08-14T08:20:35;30.20;99.90
10864;DHT22;5485;37.558;126.950;2022-08-14T08:23:04;30.20;99.90
10864;DHT22;5485;37.558;126.950;2022-08-14T08:25:36;30.10;99.90
10864;DHT22;5485;37.558;126.950;2022-08-14T08:28:07;30.00;99.90
10864;DHT22;5485;37.558;126.950;2022-08-14T08:30:38;29.90;99.90
10864;DHT22;5485;37.558;126.950;2022-08-14T08:33:06;29.70;99.90
10864;DHT22;5485;37.558;126.950;2022-08-14T08:35:36;29.40;99.90
10864;DHT22;5485;37.558;126.950;2022-08-14T08:38:11;29.10;99.90
10864;DHT22;5485;37.558;126.950;2022-08-14T08:40:44;28.70;99.90
10864;DHT22;5485;37.558;126.950;2022-08-14T08:43:30;28.40;99.90
10864;DHT22;5485;37.558;126.950;2022-08-14T08:45:59;28.30;99.90
10864;DHT22;5485;37.558;126.950;2022-08-14T08:48:41;28.20;99.90
10864;DHT22;5485;37.558;126.950;2022-08-14T08:51:18;28.10;99.90
10864;DHT22;5485;37.558;126.950;2022-08-14T08:53:59;28.00;99.90
10864;DHT22;5485;37.558;126.950;2022-08-14T08:56:52;28.00;99.90
10864;DHT22;5485;37.558;126.950;2022-08-14T08:59:30;28.00;99.90
10864;DHT22;5485;37.558;126.950;2022-08-14T09:02:03;27.90;99.90
10864;DHT22;5485;37.558;126.950;2022-08-14T09:04:40;27.90;99.90
10864;DHT22;5485;37.558;126.950;2022-08-14T09:07:08;27.90;99.90
10864;DHT22;5485;37.558;126.950;2022-08-14T09:09:35;27.90;99.90
10864;DHT22;5485;37.558;126.950;2022-08-14T09:12:18;28.00;99.90
10864;DHT22;5485;37.558;126.950;2022-08-14T09:14:46;28.10;99.90
10864;DHT22;5485;37.558;126.950;2022-08-14T09:17:14;28.20;99.90
10864;DHT22;5485;37.558;126.950;2022-08-14T09:19:41;28.30;99.90
10864;DHT22;5485;37.558;126.950;2022-08-14T09:22:08;28.30;99.90
10864;DHT22;5485;37.558;126.950;2022-08-14T09:24:38;28.30;1.00
10864;DHT22;5485;37.558;126.950;2022-08-14T09:27:05;28.40;99.90
10864;DHT22;5485;37.558;126.950;2022-08-14T09:29:32;28.30;99.90
10864;DHT22;5485;37.558;126.950;2022-08-14T09:32:02;28.30;99.90
10864;DHT22;5485;37.558;126.950;2022-08-14T09:35:08;28.30;99.90
10864;DHT22;5485;37.558;126.950;2022-08-14T09:37:53;28.20;1.00
10864;DHT22;5485;37.558;126.950;2022-08-14T09:45:56;28.20;1.00
10864;DHT22;5485;37.558;126.950;2022-08-14T09:48:25;28.20;1.00
10864;DHT22;5485;37.558;126.950;2022-08-14T09:50:54;28.20;99.90
10864;DHT22;5485;37.558;126.950;2022-08-14T09:53:41;28.20;99.90
10864;DHT22;5485;37.558;126.950;2022-08-14T09:56:14;28.20;1.00
10864;DHT22;5485;37.558;126.950;2022-08-14T09:58:46;28.10;1.00
10864;DHT22;5485;37.558;126.950;2022-08-14T10:01:15;28.10;1.00
10864;DHT22;5485;37.558;126.950;2022-08-14T10:03:51;28.00;1.00
10864;DHT22;5485;37.558;126.950;2022-08-14T10:06:28;28.00;1.00
10864;DHT22;5485;37.558;126.950;2022-08-14T10:09:04;28.00;1.00
10864;DHT22;5485;37.558;126.950;2022-08-14T10:11:33;28.00;1.00
10864;DHT22;5485;37.558;126.950;2022-08-14T10:14:15;28.00;1.00
10864;DHT22;5485;37.558;126.950;2022-08-14T10:16:47;28.00;1.00
10864;DHT22;5485;37.558;126.950;2022-08-14T10:19:18;28.00;1.00
10864;DHT22;5485;37.558;126.950;2022-08-14T10:24:28;28.00;1.00
10864;DHT22;5485;37.558;126.950;2022-08-14T10:26:56;28.00;1.00
10864;DHT22;5485;37.558;126.950;2022-08-14T10:29:32;27.90;1.00
10864;DHT22;5485;37.558;126.950;2022-08-14T10:32:00;27.90;1.00
10864;DHT22;5485;37.558;126.950;2022-08-14T10:34:37;27.90;1.00
10864;DHT22;5485;37.558;126.950;2022-08-14T10:37:10;27.80;1.00
10864;DHT22;5485;37.558;126.950;2022-08-14T10:39:41;27.80;1.00
10864;DHT22;5485;37.558;126.950;2022-08-14T10:42:11;27.70;1.00
10864;DHT22;5485;37.558;126.950;2022-08-14T10:44:43;27.70;1.00
10864;DHT22;5485;37.558;126.950;2022-08-14T10:47:15;27.60;1.00
10864;DHT22;5485;37.558;126.950;2022-08-14T10:49:56;27.60;1.00
10864;DHT22;5485;37.558;126.950;2022-08-14T10:52:29;27.60;1.00
10864;DHT22;5485;37.558;126.950;2022-08-14T10:55:12;27.50;1.00
10864;DHT22;5485;37.558;126.950;2022-08-14T10:57:53;27.50;1.00
10864;DHT22;5485;37.558;126.950;2022-08-14T11:00:24;27.50;1.00
10864;DHT22;5485;37.558;126.950;2022-08-14T11:03:00;27.50;1.00
10864;DHT22;5485;37.558;126.950;2022-08-14T11:05:48;27.40;1.00
10864;DHT22;5485;37.558;126.950;2022-08-14T11:08:17;27.40;1.00
10864;DHT22;5485;37.558;126.950;2022-08-14T11:10:57;27.40;1.00
10864;DHT22;5485;37.558;126.950;2022-08-14T11:13:27;27.40;1.00
10864;DHT22;5485;37.558;126.950;2022-08-14T11:15:56;27.40;1.00
10864;DHT22;5485;37.558;126.950;2022-08-14T11:18:29;27.50;1.00
10864;DHT22;5485;37.558;126.950;2022-08-14T11:20:59;27.50;1.00
10864;DHT22;5485;37.558;126.950;2022-08-14T11:23:31;27.40;1.00
10864;DHT22;5485;37.558;126.950;2022-08-14T11:25:59;27.40;1.00
10864;DHT22;5485;37.558;126.950;2022-08-14T11:28:32;27.40;1.00
10864;DHT22;5485;37.558;126.950;2022-08-14T11:30:59;27.40;1.00
10864;DHT22;5485;37.558;126.950;2022-08-14T11:33:29;27.40;1.00
10864;DHT22;5485;37.558;126.950;2022-08-14T11:35:59;27.40;1.00
10864;DHT22;5485;37.558;126.950;2022-08-14T11:38:27;27.40;1.00
10864;DHT22;5485;37.558;126.950;2022-08-14T11:40:56;27.40;1.00
10864;DHT22;5485;37.558;126.950;2022-08-14T11:43:23;27.40;1.00
10864;DHT22;5485;37.558;126.950;2022-08-14T11:45:51;27.40;1.00
10864;DHT22;5485;37.558;126.950;2022-08-14T11:48:20;27.40;1.00
10864;DHT22;5485;37.558;126.950;2022-08-14T11:50:49;27.40;1.00
10864;DHT22;5485;37.558;126.950;2022-08-14T11:53:27;27.40;1.00
10864;DHT22;5485;37.558;126.950;2022-08-14T11:56:02;27.30;1.00
10864;DHT22;5485;37.558;126.950;2022-08-14T11:58:34;27.40;1.00
10864;DHT22;5485;37.558;126.950;2022-08-14T12:01:03;27.40;1.00
10864;DHT22;5485;37.558;126.950;2022-08-14T12:06:10;27.40;1.00
10864;DHT22;5485;37.558;126.950;2022-08-14T12:08:38;27.40;1.00
10864;DHT22;5485;37.558;126.950;2022-08-14T12:11:08;27.40;1.00
10864;DHT22;5485;37.558;126.950;2022-08-14T12:13:36;27.40;1.00
10864;DHT22;5485;37.558;126.950;2022-08-14T12:16:08;27.30;1.00
10864;DHT22;5485;37.558;126.950;2022-08-14T12:18:38;27.40;1.00
10864;DHT22;5485;37.558;126.950;2022-08-14T12:23:38;27.50;1.00
10864;DHT22;5485;37.558;126.950;2022-08-14T12:26:08;27.40;1.00
10864;DHT22;5485;37.558;126.950;2022-08-14T12:28:36;27.50;1.00
10864;DHT22;5485;37.558;126.950;2022-08-14T12:31:33;27.50;1.00
10864;DHT22;5485;37.558;126.950;2022-08-14T12:34:03;27.40;1.00
10864;DHT22;5485;37.558;126.950;2022-08-14T12:36:30;27.50;1.00
10864;DHT22;5485;37.558;126.950;2022-08-14T12:39:20;27.50;1.00
10864;DHT22;5485;37.558;126.950;2022-08-14T12:41:55;27.50;1.00
10864;DHT22;5485;37.558;126.950;2022-08-14T12:44:40;27.40;1.00
10864;DHT22;5485;37.558;126.950;2022-08-14T12:47:12;27.40;1.00
10864;DHT22;5485;37.558;126.950;2022-08-14T12:49:50;27.40;1.00
10864;DHT22;5485;37.558;126.950;2022-08-14T12:52:32;27.40;1.00
10864;DHT22;5485;37.558;126.950;2022-08-14T12:55:02;27.40;1.00
10864;DHT22;5485;37.558;126.950;2022-08-14T12:57:44;27.40;1.00
10864;DHT22;5485;37.558;126.950;2022-08-14T13:02:48;27.30;1.00
10864;DHT22;5485;37.558;126.950;2022-08-14T13:05:21;27.30;1.00
10864;DHT22;5485;37.558;126.950;2022-08-14T13:07:48;27.40;1.00
10864;DHT22;5485;37.558;126.950;2022-08-14T13:10:20;27.40;1.00
10864;DHT22;5485;37.558;126.950;2022-08-14T13:12:49;27.40;1.00
10864;DHT22;5485;37.558;126.950;2022-08-14T13:15:17;27.40;1.00
10864;DHT22;5485;37.558;126.950;2022-08-14T13:17:52;27.40;1.00
10864;DHT22;5485;37.558;126.950;2022-08-14T13:20:26;27.40;1.00
10864;DHT22;5485;37.558;126.950;2022-08-14T13:22:55;27.40;1.00
10864;DHT22;5485;37.558;126.950;2022-08-14T13:25:24;27.40;1.00
10864;DHT22;5485;37.558;126.950;2022-08-14T13:27:57;27.40;1.00
10864;DHT22;5485;37.558;126.950;2022-08-14T13:30:26;27.50;99.90
10864;DHT22;5485;37.558;126.950;2022-08-14T13:32:56;27.50;99.90
10864;DHT22;5485;37.558;126.950;2022-08-14T13:35:24;27.40;1.00
10864;DHT22;5485;37.558;126.950;2022-08-14T13:37:52;27.50;99.90
10864;DHT22;5485;37.558;126.950;2022-08-14T13:40:21;27.50;99.90
10864;DHT22;5485;37.558;126.950;2022-08-14T13:42:49;27.50;99.90
10864;DHT22;5485;37.558;126.950;2022-08-14T13:45:17;27.50;99.90
10864;DHT22;5485;37.558;126.950;2022-08-14T13:47:47;27.50;99.90
10864;DHT22;5485;37.558;126.950;2022-08-14T13:50:15;27.50;99.90
10864;DHT22;5485;37.558;126.950;2022-08-14T13:52:50;27.50;99.90
10864;DHT22;5485;37.558;126.950;2022-08-14T13:55:27;27.50;99.90
10864;DHT22;5485;37.558;126.950;2022-08-14T13:58:00;27.50;99.90
10864;DHT22;5485;37.558;126.950;2022-08-14T14:00:28;27.40;99.90
10864;DHT22;5485;37.558;126.950;2022-08-14T14:02:58;27.50;99.90
10864;DHT22;5485;37.558;126.950;2022-08-14T14:05:25;27.40;99.90
10864;DHT22;5485;37.558;126.950;2022-08-14T14:07:53;27.40;99.90
10864;DHT22;5485;37.558;126.950;2022-08-14T14:10:24;27.40;99.90
10864;DHT22;5485;37.558;126.950;2022-08-14T14:12:51;27.40;99.90
10864;DHT22;5485;37.558;126.950;2022-08-14T14:15:20;27.40;99.90
10864;DHT22;5485;37.558;126.950;2022-08-14T14:17:48;27.40;99.90
10864;DHT22;5485;37.558;126.950;2022-08-14T14:20:18;27.40;99.90
10864;DHT22;5485;37.558;126.950;2022-08-14T14:22:47;27.40;99.90
10864;DHT22;5485;37.558;126.950;2022-08-14T14:25:17;27.40;99.90
10864;DHT22;5485;37.558;126.950;2022-08-14T14:27:46;27.30;99.90
10864;DHT22;5485;37.558;126.950;2022-08-14T14:30:17;27.40;99.90
10864;DHT22;5485;37.558;126.950;2022-08-14T14:32:47;27.30;99.90
10864;DHT22;5485;37.558;126.950;2022-08-14T14:35:16;27.30;99.90
10864;DHT22;5485;37.558;126.950;2022-08-14T14:37:46;27.30;99.90
10864;DHT22;5485;37.558;126.950;2022-08-14T14:42:49;27.20;99.90
10864;DHT22;5485;37.558;126.950;2022-08-14T14:45:19;27.30;99.90
10864;DHT22;5485;37.558;126.950;2022-08-14T14:47:55;27.30;99.90
10864;DHT22;5485;37.558;126.950;2022-08-14T14:50:22;27.30;99.90
10864;DHT22;5485;37.558;126.950;2022-08-14T14:52:50;27.30;99.90
10864;DHT22;5485;37.558;126.950;2022-08-14T14:55:18;27.30;99.90
10864;DHT22;5485;37.558;126.950;2022-08-14T14:57:46;27.30;99.90
10864;DHT22;5485;37.558;126.950;2022-08-14T15:00:18;27.30;99.90
10864;DHT22;5485;37.558;126.950;2022-08-14T15:02:49;27.30;99.90
10864;DHT22;5485;37.558;126.950;2022-08-14T15:05:17;27.30;99.90
10864;DHT22;5485;37.558;126.950;2022-08-14T15:07:46;27.30;99.90
10864;DHT22;5485;37.558;126.950;2022-08-14T15:10:15;27.30;99.90
10864;DHT22;5485;37.558;126.950;2022-08-14T15:12:42;27.30;99.90
10864;DHT22;5485;37.558;126.950;2022-08-14T15:15:11;27.30;99.90
10864;DHT22;5485;37.558;126.950;2022-08-14T15:17:39;27.30;99.90
10864;DHT22;5485;37.558;126.950;2022-08-14T15:20:09;27.30;99.90
10864;DHT22;5485;37.558;126.950;2022-08-14T15:22:37;27.20;99.90
10864;DHT22;5485;37.558;126.950;2022-08-14T15:25:07;27.20;99.90
10864;DHT22;5485;37.558;126.950;2022-08-14T15:27:36;27.20;99.90
10864;DHT22;5485;37.558;126.950;2022-08-14T15:30:06;27.20;99.90
10864;DHT22;5485;37.558;126.950;2022-08-14T15:32:34;27.20;99.90
10864;DHT22;5485;37.558;126.950;2022-08-14T15:35:01;27.20;99.90
10864;DHT22;5485;37.558;126.950;2022-08-14T15:37:28;27.20;99.90
10864;DHT22;5485;37.558;126.950;2022-08-14T15:39:55;27.20;99.90
10864;DHT22;5485;37.558;126.950;2022-08-14T15:42:22;27.20;99.90
10864;DHT22;5485;37.558;126.950;2022-08-14T15:44:53;27.20;99.90
10864;DHT22;5485;37.558;126.950;2022-08-14T15:47:21;27.20;99.90
10864;DHT22;5485;37.558;126.950;2022-08-14T15:49:48;27.20;99.90
10864;DHT22;5485;37.558;126.950;2022-08-14T15:52:18;27.20;99.90
10864;DHT22;5485;37.558;126.950;2022-08-14T15:54:48;27.20;99.90
10864;DHT22;5485;37.558;126.950;2022-08-14T15:57:15;27.20;99.90
10864;DHT22;5485;37.558;126.950;2022-08-14T15:59:42;27.20;99.90
10864;DHT22;5485;37.558;126.950;2022-08-14T16:02:27;27.20;99.90
10864;DHT22;5485;37.558;126.950;2022-08-14T16:04:55;27.20;99.90